createdAt,value
2016-06-29T00:00:02.866Z,1004.03
2016-06-29T00:01:02.865Z,1004
2016-06-29T00:02:02.870Z,1003.97
2016-06-29T00:03:02.866Z,1003.91
2016-06-29T00:04:02.870Z,1003.93
2016-06-29T00:05:02.877Z,1003.92
2016-06-29T00:06:02.885Z,1003.9
2016-06-29T00:07:02.910Z,1003.84
2016-06-29T00:08:02.908Z,1003.88
2016-06-29T00:09:02.889Z,1003.87
2016-06-29T00:10:02.891Z,1003.89
2016-06-29T00:11:02.897Z,1003.83
2016-06-29T00:12:02.898Z,1003.82
2016-06-29T00:13:02.901Z,1003.76
2016-06-29T00:14:02.905Z,1003.7
2016-06-29T00:15:02.912Z,1003.7
2016-06-29T00:16:02.915Z,1003.69
2016-06-29T00:17:02.916Z,1003.73
2016-06-29T00:18:02.921Z,1003.69
2016-06-29T00:19:02.927Z,1003.67
2016-06-29T00:20:02.929Z,1003.55
2016-06-29T00:21:02.932Z,1003.53
2016-06-29T00:22:02.941Z,1003.57
2016-06-29T00:23:02.939Z,1003.53
2016-06-29T00:24:02.946Z,1003.57
2016-06-29T00:25:02.952Z,1003.53
2016-06-29T00:26:02.953Z,1003.49
2016-06-29T00:27:02.977Z,1003.49
2016-06-29T00:28:02.960Z,1003.48
2016-06-29T00:29:02.965Z,1003.51
2016-06-29T00:30:02.966Z,1003.47
2016-06-29T00:31:02.974Z,1003.45
2016-06-29T00:32:02.978Z,1003.42
2016-06-29T00:33:02.976Z,1003.41
2016-06-29T00:34:03.007Z,1003.45
2016-06-29T00:35:02.990Z,1003.4
2016-06-29T00:36:02.990Z,1003.4
2016-06-29T00:37:02.994Z,1003.37
2016-06-29T00:38:02.996Z,1003.35
2016-06-29T00:39:03.003Z,1003.37
2016-06-29T00:40:03.008Z,1003.34
2016-06-29T00:41:03.009Z,1003.34
2016-06-29T00:42:03.050Z,1003.37
2016-06-29T00:43:03.026Z,1003.38
2016-06-29T00:44:03.022Z,1003.38
2016-06-29T00:45:03.025Z,1003.38
2016-06-29T00:46:03.028Z,1003.39
2016-06-29T00:47:03.035Z,1003.4
2016-06-29T00:48:03.033Z,1003.45
2016-06-29T00:49:03.035Z,1003.44
2016-06-29T00:50:03.050Z,1003.44
2016-06-29T00:51:03.044Z,1003.42
2016-06-29T00:52:03.051Z,1003.46
2016-06-29T00:53:03.052Z,1003.46
2016-06-29T00:54:03.058Z,1003.46
2016-06-29T00:55:03.062Z,1003.47
2016-06-29T00:56:03.071Z,1003.44
2016-06-29T00:57:03.067Z,1003.49
2016-06-29T00:58:03.070Z,1003.45
2016-06-29T00:59:03.075Z,1003.44
2016-06-29T01:00:03.083Z,1003.48
2016-06-29T01:01:03.101Z,1003.57
2016-06-29T01:02:03.090Z,1003.56
2016-06-29T01:03:03.290Z,1003.51
2016-06-29T01:04:03.094Z,1003.52
2016-06-29T01:05:03.097Z,1003.51
2016-06-29T01:06:03.103Z,1003.48
2016-06-29T01:07:03.104Z,1003.5
2016-06-29T01:08:03.110Z,1003.49
2016-06-29T01:09:03.107Z,1003.52
2016-06-29T01:10:03.120Z,1003.5
2016-06-29T01:11:03.126Z,1003.49
2016-06-29T01:12:03.122Z,1003.46
2016-06-29T01:13:03.128Z,1003.45
2016-06-29T01:14:03.880Z,1003.45
2016-06-29T01:15:03.134Z,1003.52
2016-06-29T01:16:03.135Z,1003.47
2016-06-29T01:17:03.138Z,1003.55
2016-06-29T01:18:03.142Z,1003.53
2016-06-29T01:19:03.153Z,1003.53
2016-06-29T01:20:03.154Z,1003.56
2016-06-29T01:21:03.156Z,1003.55
2016-06-29T01:22:03.155Z,1003.52
2016-06-29T01:23:03.165Z,1003.55
2016-06-29T01:24:03.164Z,1003.46
2016-06-29T01:25:03.168Z,1003.49
2016-06-29T01:26:03.175Z,1003.48
2016-06-29T01:27:03.221Z,1003.45
2016-06-29T01:28:03.183Z,1003.48
2016-06-29T01:29:03.190Z,1003.47
2016-06-29T01:30:03.187Z,1003.49
2016-06-29T01:31:03.190Z,1003.49
2016-06-29T01:32:03.193Z,1003.52
2016-06-29T01:33:03.197Z,1003.58
2016-06-29T01:34:03.203Z,1003.6
2016-06-29T01:35:03.206Z,1003.62
2016-06-29T01:36:03.209Z,1003.67
2016-06-29T01:37:03.213Z,1003.7
2016-06-29T01:38:03.214Z,1003.59
2016-06-29T01:39:03.219Z,1003.61
2016-06-29T01:40:03.222Z,1003.61
2016-06-29T01:41:03.235Z,1003.58
2016-06-29T01:42:03.232Z,1003.58
2016-06-29T01:43:03.236Z,1003.59
2016-06-29T01:44:03.232Z,1003.67
2016-06-29T01:45:03.285Z,1003.67
2016-06-29T01:46:03.243Z,1003.66
2016-06-29T01:47:03.260Z,1003.69
2016-06-29T01:48:03.247Z,1003.7
2016-06-29T01:49:03.254Z,1003.68
2016-06-29T01:50:03.256Z,1003.7
2016-06-29T01:51:03.264Z,1003.75
2016-06-29T01:52:03.263Z,1003.76
2016-06-29T01:53:03.267Z,1003.78
2016-06-29T01:54:03.274Z,1003.78
2016-06-29T01:55:03.275Z,1003.77
2016-06-29T01:56:03.325Z,1003.81
2016-06-29T01:57:03.286Z,1003.95
2016-06-29T01:58:03.282Z,1004
2016-06-29T01:59:03.291Z,1004.07
2016-06-29T02:00:03.289Z,1003.99
2016-06-29T02:01:03.293Z,1004.02
2016-06-29T02:02:03.297Z,1004.08
2016-06-29T02:03:03.298Z,1004.19
2016-06-29T02:04:03.309Z,1004.24
2016-06-29T02:05:03.310Z,1004.28
2016-06-29T02:06:03.306Z,1004.15
2016-06-29T02:07:03.762Z,1004.21
2016-06-29T02:08:03.325Z,1004.2
2016-06-29T02:09:03.322Z,1004.19
2016-06-29T02:10:03.330Z,1004.2
2016-06-29T02:11:03.326Z,1004.17
2016-06-29T02:12:03.330Z,1004.08
2016-06-29T02:13:03.345Z,1004.09
2016-06-29T02:14:03.340Z,1004.11
2016-06-29T02:15:03.339Z,1004.03
2016-06-29T02:16:03.371Z,1004.04
2016-06-29T02:17:03.351Z,1004
2016-06-29T02:18:04.047Z,1003.95
2016-06-29T02:19:03.356Z,1003.89
2016-06-29T02:20:03.365Z,1003.96
2016-06-29T02:21:03.360Z,1003.99
2016-06-29T02:22:03.366Z,1004.01
2016-06-29T02:23:03.369Z,1003.96
2016-06-29T02:24:03.422Z,1003.9
2016-06-29T02:25:03.387Z,1003.92
2016-06-29T02:26:03.377Z,1003.99
2016-06-29T02:27:03.386Z,1004
2016-06-29T02:28:03.382Z,1004.06
2016-06-29T02:29:04.334Z,1004.07
2016-06-29T02:30:03.394Z,1004.08
2016-06-29T02:31:03.394Z,1004.13
2016-06-29T02:32:03.405Z,1004.15
2016-06-29T02:33:03.401Z,1004.17
2016-06-29T02:34:03.407Z,1004.2
2016-06-29T02:35:03.418Z,1004.23
2016-06-29T02:36:03.410Z,1004.23
2016-06-29T02:37:03.415Z,1004.25
2016-06-29T02:38:03.417Z,1004.24
2016-06-29T02:39:03.422Z,1004.25
2016-06-29T02:40:03.423Z,1004.28
2016-06-29T02:41:03.429Z,1004.22
2016-06-29T02:42:03.431Z,1004.16
2016-06-29T02:43:03.435Z,1004.17
2016-06-29T02:44:03.433Z,1004.12
2016-06-29T02:45:03.436Z,1004.12
2016-06-29T02:46:03.437Z,1004.16
2016-06-29T02:47:03.445Z,1004.16
2016-06-29T02:48:03.452Z,1004.15
2016-06-29T02:49:03.452Z,1004.13
2016-06-29T02:50:03.453Z,1004.1
2016-06-29T02:51:03.456Z,1004.16
2016-06-29T02:52:03.463Z,1004.15
2016-06-29T02:53:03.463Z,1004.19
2016-06-29T02:54:03.465Z,1004.18
2016-06-29T02:55:03.469Z,1004.14
2016-06-29T02:56:03.471Z,1004.16
2016-06-29T02:57:03.473Z,1004.16
2016-06-29T02:58:03.479Z,1004.11
2016-06-29T02:59:03.478Z,1004.14
2016-06-29T03:00:03.483Z,1004.12
2016-06-29T03:01:03.493Z,1004.14
2016-06-29T03:02:03.491Z,1004.21
2016-06-29T03:03:03.494Z,1004.2
2016-06-29T03:04:03.503Z,1004.22
2016-06-29T03:05:03.499Z,1004.2
2016-06-29T03:06:03.505Z,1004.23
2016-06-29T03:07:03.508Z,1004.23
2016-06-29T03:08:03.518Z,1004.23
2016-06-29T03:09:03.517Z,1004.23
2016-06-29T03:10:03.544Z,1004.2
2016-06-29T03:11:03.518Z,1004.22
2016-06-29T03:12:03.517Z,1004.16
2016-06-29T03:13:03.523Z,1004.14
2016-06-29T03:14:03.536Z,1004.17
2016-06-29T03:15:03.528Z,1004.17
2016-06-29T03:16:03.534Z,1004.17
2016-06-29T03:17:03.538Z,1004.13
2016-06-29T03:18:03.538Z,1004.12
2016-06-29T03:19:03.544Z,1004.2
2016-06-29T03:20:03.546Z,1004.24
2016-06-29T03:21:03.552Z,1004.26
2016-06-29T03:22:03.553Z,1004.25
2016-06-29T03:23:03.556Z,1004.25
2016-06-29T03:24:03.558Z,1004.23
2016-06-29T03:25:03.562Z,1004.3
2016-06-29T03:26:03.562Z,1004.3
2016-06-29T03:27:03.567Z,1004.3
2016-06-29T03:28:03.570Z,1004.3
2016-06-29T03:29:03.574Z,1004.32
2016-06-29T03:30:03.579Z,1004.34
2016-06-29T03:31:03.587Z,1004.34
2016-06-29T03:32:03.586Z,1004.3
2016-06-29T03:33:03.587Z,1004.32
2016-06-29T03:34:03.595Z,1004.33
2016-06-29T03:35:03.597Z,1004.3
2016-06-29T03:36:03.611Z,1004.32
2016-06-29T03:37:03.602Z,1004.34
2016-06-29T03:38:03.607Z,1004.34
2016-06-29T03:39:03.614Z,1004.37
2016-06-29T03:40:03.611Z,1004.35
2016-06-29T03:41:03.618Z,1004.33
2016-06-29T03:42:03.650Z,1004.36
2016-06-29T03:43:03.621Z,1004.38
2016-06-29T03:44:03.626Z,1004.4
2016-06-29T03:45:03.631Z,1004.4
2016-06-29T03:46:03.633Z,1004.43
2016-06-29T03:47:03.642Z,1004.47
2016-06-29T03:48:03.646Z,1004.48
2016-06-29T03:49:03.645Z,1004.48
2016-06-29T03:50:03.652Z,1004.48
2016-06-29T03:51:03.657Z,1004.5
2016-06-29T03:52:03.659Z,1004.49
2016-06-29T03:53:03.664Z,1004.47
2016-06-29T03:54:03.670Z,1004.5
2016-06-29T03:55:03.674Z,1004.5
2016-06-29T03:56:03.669Z,1004.5
2016-06-29T03:57:03.676Z,1004.53
2016-06-29T03:58:03.679Z,1004.52
2016-06-29T03:59:03.687Z,1004.48
2016-06-29T04:00:03.688Z,1004.48
2016-06-29T04:01:03.693Z,1004.47
2016-06-29T04:02:03.690Z,1004.51
2016-06-29T04:03:03.691Z,1004.48
2016-06-29T04:04:03.696Z,1004.46
2016-06-29T04:05:03.700Z,1004.5
2016-06-29T04:06:03.704Z,1004.51
2016-06-29T04:07:03.705Z,1004.49
2016-06-29T04:08:03.711Z,1004.48
2016-06-29T04:09:03.727Z,1004.48
2016-06-29T04:10:03.719Z,1004.48
2016-06-29T04:11:03.722Z,1004.51
2016-06-29T04:12:03.722Z,1004.48
2016-06-29T04:13:03.727Z,1004.53
2016-06-29T04:14:03.729Z,1004.48
2016-06-29T04:15:03.724Z,1004.5
2016-06-29T04:16:03.733Z,1004.5
2016-06-29T04:17:03.734Z,1004.52
2016-06-29T04:18:03.743Z,1004.48
2016-06-29T04:19:03.743Z,1004.52
2016-06-29T04:20:03.745Z,1004.55
2016-06-29T04:21:04.046Z,1004.54
2016-06-29T04:22:03.800Z,1004.53
2016-06-29T04:23:03.754Z,1004.56
2016-06-29T04:24:03.758Z,1004.55
2016-06-29T04:25:03.762Z,1004.51
2016-06-29T04:26:03.770Z,1004.53
2016-06-29T04:27:03.767Z,1004.51
2016-06-29T04:28:03.767Z,1004.54
2016-06-29T04:29:03.781Z,1004.58
2016-06-29T04:30:03.781Z,1004.55
2016-06-29T04:31:03.781Z,1004.54
2016-06-29T04:32:04.506Z,1004.59
2016-06-29T04:33:03.793Z,1004.58
2016-06-29T04:34:03.796Z,1004.57
2016-06-29T04:35:03.795Z,1004.59
2016-06-29T04:36:03.793Z,1004.56
2016-06-29T04:37:03.800Z,1004.6
2016-06-29T04:38:03.804Z,1004.6
2016-06-29T04:39:03.808Z,1004.61
2016-06-29T04:40:03.809Z,1004.59
2016-06-29T04:41:03.814Z,1004.55
2016-06-29T04:42:03.817Z,1004.59
2016-06-29T04:43:04.730Z,1004.64
2016-06-29T04:44:03.827Z,1004.62
2016-06-29T04:45:03.827Z,1004.67
2016-06-29T04:46:03.826Z,1004.68
2016-06-29T04:47:03.836Z,1004.67
2016-06-29T04:48:03.835Z,1004.67
2016-06-29T04:49:03.841Z,1004.73
2016-06-29T04:50:03.847Z,1004.76
2016-06-29T04:51:03.845Z,1004.74
2016-06-29T04:52:03.849Z,1004.8
2016-06-29T04:53:03.855Z,1004.81
2016-06-29T04:54:04.904Z,1004.84
2016-06-29T04:55:03.859Z,1004.95
2016-06-29T04:56:03.862Z,1004.93
2016-06-29T04:57:03.862Z,1005.19
2016-06-29T04:58:03.878Z,1005.35
2016-06-29T04:59:03.870Z,1005.59
2016-06-29T05:00:03.872Z,1005.67
2016-06-29T05:01:03.875Z,1005.71
2016-06-29T05:02:03.878Z,1005.78
2016-06-29T05:03:03.881Z,1005.83
2016-06-29T05:04:03.884Z,1005.87
2016-06-29T05:05:04.988Z,1005.88
2016-06-29T05:06:03.896Z,1005.85
2016-06-29T05:07:03.895Z,1005.91
2016-06-29T05:08:03.904Z,1005.86
2016-06-29T05:10:03.915Z,1005.38
2016-06-29T05:11:03.920Z,1005.14
2016-06-29T05:12:03.924Z,1005.9
2016-06-29T05:13:03.926Z,1005.6
2016-06-29T05:14:03.935Z,1005.22
2016-06-29T05:15:03.940Z,1005.2
2016-06-29T05:16:03.944Z,1005.16
2016-06-29T05:17:03.954Z,1005.17
2016-06-29T05:18:03.950Z,1005.2
2016-06-29T05:19:03.954Z,1005.23
2016-06-29T05:20:03.959Z,1005.41
2016-06-29T05:21:03.970Z,1005.31
2016-06-29T05:22:04.016Z,1005.28
2016-06-29T05:23:04.022Z,1005.82
2016-06-29T05:24:03.981Z,1005.97
2016-06-29T05:25:03.983Z,1006.25
2016-06-29T05:26:03.986Z,1006.34
2016-06-29T05:27:03.988Z,1006.32
2016-06-29T05:28:03.993Z,1006.42
2016-06-29T05:29:03.999Z,1006.54
2016-06-29T05:30:04.010Z,1006.53
2016-06-29T05:31:04.020Z,1006.59
2016-06-29T05:32:04.019Z,1006.61
2016-06-29T05:33:04.026Z,1006.72
2016-06-29T05:34:04.034Z,1006.77
2016-06-29T05:35:04.034Z,1006.86
2016-06-29T05:36:04.042Z,1006.73
2016-06-29T05:37:04.047Z,1005.57
2016-06-29T05:38:04.054Z,1005.52
2016-06-29T05:39:04.060Z,1005.64
2016-06-29T05:40:04.064Z,1005.58
2016-06-29T05:41:04.070Z,1005.68
2016-06-29T05:42:04.077Z,1005.58
2016-06-29T05:43:04.080Z,1005.58
2016-06-29T05:44:04.084Z,1005.59
2016-06-29T05:45:04.094Z,1005.57
2016-06-29T05:46:04.093Z,1005.55
2016-06-29T05:47:04.153Z,1005.57
2016-06-29T05:48:04.104Z,1005.54
2016-06-29T05:49:04.105Z,1005.55
2016-06-29T05:50:04.114Z,1005.59
2016-06-29T05:51:04.118Z,1005.77
2016-06-29T05:52:04.126Z,1005.55
2016-06-29T05:53:04.122Z,1005.5
2016-06-29T05:54:04.130Z,1005.5
2016-06-29T05:55:04.133Z,1005.46
2016-06-29T05:56:04.136Z,1005.52
2016-06-29T05:57:04.141Z,1005.47
2016-06-29T05:58:04.739Z,1005.46
2016-06-29T05:59:04.147Z,1005.42
2016-06-29T06:00:04.156Z,1005.38
2016-06-29T06:01:04.155Z,1005.36
2016-06-29T06:02:04.162Z,1005.36
2016-06-29T06:03:04.163Z,1005.34
2016-06-29T06:04:04.173Z,1005.37
2016-06-29T06:05:04.172Z,1005.32
2016-06-29T06:06:04.173Z,1005.5
2016-06-29T06:07:04.174Z,1005.36
2016-06-29T06:08:04.181Z,1005.41
2016-06-29T06:09:05.187Z,1005.34
2016-06-29T06:10:04.186Z,1005.43
2016-06-29T06:11:04.197Z,1005.84
2016-06-29T06:12:04.201Z,1005.41
2016-06-29T06:13:04.199Z,1005.37
2016-06-29T06:14:04.203Z,1005.52
2016-06-29T06:15:04.204Z,1005.47
2016-06-29T06:16:04.213Z,1005.53
2016-06-29T06:17:04.213Z,1005.54
2016-06-29T06:18:04.218Z,1005.46
2016-06-29T06:19:04.225Z,1005.39
2016-06-29T06:20:05.226Z,1005.45
2016-06-29T06:21:04.229Z,1005.45
2016-06-29T06:22:04.234Z,1005.46
2016-06-29T06:23:04.235Z,1005.55
2016-06-29T06:24:04.250Z,1005.59
2016-06-29T06:25:04.244Z,1005.64
2016-06-29T06:26:04.250Z,1005.81
2016-06-29T06:27:04.250Z,1005.64
2016-06-29T06:28:04.254Z,1005.63
2016-06-29T06:29:04.261Z,1005.7
2016-06-29T06:30:04.262Z,1005.71
2016-06-29T06:31:04.268Z,1005.68
2016-06-29T06:32:04.272Z,1005.64
2016-06-29T06:33:04.300Z,1005.74
2016-06-29T06:34:04.277Z,1005.6
2016-06-29T06:35:04.282Z,1005.71
2016-06-29T06:36:04.285Z,1005.69
2016-06-29T06:37:04.286Z,1005.74
2016-06-29T06:38:04.293Z,1005.76
2016-06-29T06:39:04.297Z,1005.74
2016-06-29T06:40:04.301Z,1005.72
2016-06-29T06:41:04.303Z,1005.69
2016-06-29T06:42:04.307Z,1005.72
2016-06-29T06:43:04.307Z,1005.68
2016-06-29T06:44:04.315Z,1005.82
2016-06-29T06:45:04.314Z,1006.69
2016-06-29T06:46:04.321Z,1006.03
2016-06-29T06:47:04.328Z,1005.8
2016-06-29T06:48:04.337Z,1005.94
2016-06-29T06:49:04.342Z,1006.25
2016-06-29T06:50:04.337Z,1006.63
2016-06-29T06:51:04.337Z,1006.16
2016-06-29T06:52:04.348Z,1006.02
2016-06-29T06:53:04.349Z,1006.37
2016-06-29T06:54:04.358Z,1006.1
2016-06-29T06:55:04.366Z,1006.4
2016-06-29T06:56:04.366Z,1005.88
2016-06-29T06:57:04.366Z,1005.89
2016-06-29T06:58:04.378Z,1005.98
2016-06-29T06:59:04.375Z,1006.45
2016-06-29T07:00:04.382Z,1006.55
2016-06-29T07:01:04.388Z,1006.2
2016-06-29T07:02:04.448Z,1005.92
2016-06-29T07:03:04.396Z,1005.8
2016-06-29T07:04:04.400Z,1005.81
2016-06-29T07:05:04.407Z,1005.85
2016-06-29T07:06:04.413Z,1005.91
2016-06-29T07:07:04.419Z,1006.34
2016-06-29T07:08:04.421Z,1006.27
2016-06-29T07:09:04.427Z,1006.23
2016-06-29T07:10:04.430Z,1006.14
2016-06-29T07:11:04.450Z,1006
2016-06-29T07:12:04.455Z,1005.96
2016-06-29T07:13:04.642Z,1005.97
2016-06-29T07:14:04.455Z,1005.88
2016-06-29T07:15:04.465Z,1005.88
2016-06-29T07:16:04.465Z,1005.95
2016-06-29T07:17:04.469Z,1005.93
2016-06-29T07:18:04.496Z,1005.92
2016-06-29T07:19:04.483Z,1005.92
2016-06-29T07:20:04.479Z,1005.85
2016-06-29T07:21:04.493Z,1005.89
2016-06-29T07:22:04.511Z,1005.94
2016-06-29T07:23:04.497Z,1005.9
2016-06-29T07:24:05.196Z,1005.92
2016-06-29T07:25:04.501Z,1005.96
2016-06-29T07:26:04.504Z,1005.96
2016-06-29T07:27:04.507Z,1006.04
2016-06-29T07:28:04.516Z,1006.05
2016-06-29T07:29:04.520Z,1005.97
2016-06-29T07:30:04.520Z,1005.98
2016-06-29T07:31:04.523Z,1005.99
2016-06-29T07:32:04.531Z,1006.1
2016-06-29T07:33:04.532Z,1006.02
2016-06-29T07:34:04.538Z,1006.06
2016-06-29T07:35:05.393Z,1006
2016-06-29T07:36:04.550Z,1006.07
2016-06-29T07:37:04.556Z,1006.05
2016-06-29T07:38:04.567Z,1006.03
2016-06-29T07:39:04.570Z,1006.08
2016-06-29T07:40:04.557Z,1006.07
2016-06-29T07:41:04.578Z,1006.34
2016-06-29T07:42:04.573Z,1006.23
2016-06-29T07:43:04.573Z,1006.21
2016-06-29T07:44:04.578Z,1006.19
2016-06-29T07:45:04.579Z,1006.29
2016-06-29T07:46:05.677Z,1006.2
2016-06-29T07:47:04.586Z,1006.19
2016-06-29T07:48:04.592Z,1006.18
2016-06-29T07:49:04.591Z,1006.25
2016-06-29T07:50:04.599Z,1006.15
2016-06-29T07:51:04.605Z,1006.16
2016-06-29T07:52:04.607Z,1006.13
2016-06-29T07:53:04.614Z,1006.19
2016-06-29T07:54:04.615Z,1006.12
2016-06-29T07:55:04.619Z,1006.13
2016-06-29T07:56:04.625Z,1006.09
2016-06-29T07:57:04.634Z,1006.19
2016-06-29T07:58:04.634Z,1006.13
2016-06-29T07:59:04.644Z,1006.16
2016-06-29T08:00:04.676Z,1006.11
2016-06-29T08:01:04.644Z,1006.11
2016-06-29T08:02:04.652Z,1006.12
2016-06-29T08:03:04.660Z,1006.16
2016-06-29T08:04:04.662Z,1006.13
2016-06-29T08:05:04.666Z,1006.11
2016-06-29T08:06:04.669Z,1006.08
2016-06-29T08:07:04.675Z,1006.07
2016-06-29T08:08:04.677Z,1006.08
2016-06-29T08:09:04.694Z,1006.11
2016-06-29T08:10:04.689Z,1006.12
2016-06-29T08:11:04.691Z,1006.04
2016-06-29T08:12:04.699Z,1006.03
2016-06-29T08:13:04.711Z,1006.05
2016-06-29T08:14:04.700Z,1006.05
2016-06-29T08:15:04.707Z,1006.06
2016-06-29T08:16:04.717Z,1006.05
2016-06-29T08:17:04.716Z,1006.12
2016-06-29T08:18:04.726Z,1006.1
2016-06-29T08:19:04.738Z,1006.06
2016-06-29T08:20:04.731Z,1006.11
2016-06-29T08:21:04.737Z,1006.19
2016-06-29T08:22:04.739Z,1006.14
2016-06-29T08:23:04.749Z,1006.16
2016-06-29T08:24:04.796Z,1006.22
2016-06-29T08:25:04.751Z,1006.28
2016-06-29T08:26:04.762Z,1006.22
2016-06-29T08:27:04.771Z,1006.28
2016-06-29T08:28:04.767Z,1006.25
2016-06-29T08:29:04.777Z,1006.16
2016-06-29T08:30:04.778Z,1006.31
2016-06-29T08:31:04.784Z,1006.33
2016-06-29T08:32:04.791Z,1006.27
2016-06-29T08:33:04.790Z,1006.27
2016-06-29T08:34:04.796Z,1006.21
2016-06-29T08:35:04.805Z,1006.26
2016-06-29T08:36:04.821Z,1006.28
2016-06-29T08:37:04.808Z,1006.27
2016-06-29T08:38:04.813Z,1006.26
2016-06-29T08:39:04.815Z,1006.25
2016-06-29T08:40:04.822Z,1006.3
2016-06-29T08:41:04.823Z,1006.31
2016-06-29T08:42:04.830Z,1006.37
2016-06-29T08:43:04.836Z,1006.35
2016-06-29T08:44:04.838Z,1006.27
2016-06-29T08:45:04.845Z,1006.28
2016-06-29T08:46:04.851Z,1006.33
2016-06-29T08:47:04.847Z,1006.31
2016-06-29T08:48:04.857Z,1006.27
2016-06-29T08:49:04.861Z,1006.29
2016-06-29T08:50:04.863Z,1006.32
2016-06-29T08:51:04.869Z,1006.3
2016-06-29T08:52:04.871Z,1006.31
2016-06-29T08:53:04.883Z,1006.31
2016-06-29T08:54:04.881Z,1006.34
2016-06-29T08:55:04.880Z,1006.29
2016-06-29T08:56:04.890Z,1006.33
2016-06-29T08:57:04.893Z,1006.35
2016-06-29T08:58:04.897Z,1006.31
2016-06-29T08:59:04.904Z,1006.3
2016-06-29T09:00:04.903Z,1006.37
2016-06-29T09:01:04.912Z,1006.26
2016-06-29T09:02:04.924Z,1006.29
2016-06-29T09:03:04.918Z,1006.37
2016-06-29T09:04:04.955Z,1006.42
2016-06-29T09:05:05.324Z,1006.4
2016-06-29T09:06:04.933Z,1006.46
2016-06-29T09:07:04.933Z,1006.35
2016-06-29T09:08:04.947Z,1006.32
2016-06-29T09:09:04.947Z,1006.36
2016-06-29T09:10:04.960Z,1006.36
2016-06-29T09:11:04.953Z,1006.44
2016-06-29T09:12:04.967Z,1006.32
2016-06-29T09:13:04.960Z,1006.34
2016-06-29T09:14:04.967Z,1006.33
2016-06-29T09:15:04.965Z,1006.38
2016-06-29T09:16:05.674Z,1006.38
2016-06-29T09:17:04.978Z,1006.34
2016-06-29T09:18:04.983Z,1006.32
2016-06-29T09:19:04.993Z,1006.34
2016-06-29T09:20:04.992Z,1006.38
2016-06-29T09:21:04.996Z,1006.42
2016-06-29T09:22:04.998Z,1006.34
2016-06-29T09:23:05.006Z,1006.37
2016-06-29T09:24:05.005Z,1006.49
2016-06-29T09:25:05.110Z,1006.45
2016-06-29T09:26:05.031Z,1006.46
2016-06-29T09:27:05.018Z,1006.48
2016-06-29T09:28:05.063Z,1006.45
2016-06-29T09:29:05.032Z,1006.53
2016-06-29T09:30:05.038Z,1006.51
2016-06-29T09:31:05.090Z,1006.51
2016-06-29T09:32:05.061Z,1006.56
2016-06-29T09:33:05.061Z,1006.52
2016-06-29T09:34:05.057Z,1006.49
2016-06-29T09:35:05.059Z,1006.57
2016-06-29T09:36:05.067Z,1006.47
2016-06-29T09:37:05.069Z,1006.51
2016-06-29T09:38:05.068Z,1006.56
2016-06-29T09:39:07.729Z,1006.59
2016-06-29T09:40:05.080Z,1006.56
2016-06-29T09:41:05.090Z,1006.58
2016-06-29T09:42:05.090Z,1006.62
2016-06-29T09:43:05.106Z,1006.62
2016-06-29T09:44:05.101Z,1006.61
2016-06-29T09:45:05.106Z,1006.61
2016-06-29T09:46:05.109Z,1006.61
2016-06-29T09:47:05.363Z,1006.57
2016-06-29T09:48:05.122Z,1006.54
2016-06-29T09:49:05.120Z,1006.57
2016-06-29T09:50:05.122Z,1006.66
2016-06-29T09:51:05.135Z,1006.64
2016-06-29T09:52:05.134Z,1006.64
2016-06-29T09:53:05.144Z,1006.68
2016-06-29T09:54:05.151Z,1006.73
2016-06-29T09:55:05.155Z,1006.75
2016-06-29T09:56:05.161Z,1006.66
2016-06-29T09:57:05.170Z,1006.65
2016-06-29T09:58:05.518Z,1006.66
2016-06-29T09:59:05.174Z,1006.68
2016-06-29T10:00:05.169Z,1006.7
2016-06-29T10:01:05.175Z,1006.69
2016-06-29T10:02:05.178Z,1006.68
2016-06-29T10:03:05.189Z,1006.76
2016-06-29T10:04:05.192Z,1006.75
2016-06-29T10:05:05.195Z,1006.7
2016-06-29T10:06:05.198Z,1006.75
2016-06-29T10:07:05.204Z,1006.74
2016-06-29T10:08:05.212Z,1006.77
2016-06-29T10:09:05.912Z,1006.79
2016-06-29T10:10:05.223Z,1006.82
2016-06-29T10:11:05.219Z,1006.78
2016-06-29T10:12:05.225Z,1006.84
2016-06-29T10:13:05.228Z,1006.79
2016-06-29T10:14:05.255Z,1006.82
2016-06-29T10:15:05.244Z,1006.76
2016-06-29T10:16:05.252Z,1006.78
2016-06-29T10:17:05.258Z,1006.81
2016-06-29T10:18:05.255Z,1006.75
2016-06-29T10:19:05.259Z,1006.83
2016-06-29T10:20:06.363Z,1006.78
2016-06-29T10:21:05.271Z,1006.86
2016-06-29T10:22:05.272Z,1006.82
2016-06-29T10:23:05.326Z,1006.89
2016-06-29T10:24:05.283Z,1006.89
2016-06-29T10:25:05.308Z,1006.89
2016-06-29T10:26:05.288Z,1006.91
2016-06-29T10:27:05.292Z,1006.88
2016-06-29T10:28:05.300Z,1006.9
2016-06-29T10:29:05.301Z,1006.91
2016-06-29T10:30:05.306Z,1006.92
2016-06-29T10:31:05.363Z,1006.9
2016-06-29T10:32:05.317Z,1006.93
2016-06-29T10:33:05.322Z,1007.04
2016-06-29T10:34:05.326Z,1006.97
2016-06-29T10:35:05.331Z,1006.95
2016-06-29T10:36:05.342Z,1006.97
2016-06-29T10:37:05.344Z,1006.96
2016-06-29T10:38:05.351Z,1006.92
2016-06-29T10:39:05.351Z,1006.91
2016-06-29T10:40:05.356Z,1006.94
2016-06-29T10:41:05.363Z,1006.92
2016-06-29T10:42:05.366Z,1006.91
2016-06-29T10:43:05.373Z,1006.86
2016-06-29T10:44:05.377Z,1006.93
2016-06-29T10:45:05.380Z,1006.9
2016-06-29T10:46:05.391Z,1006.9
2016-06-29T10:47:05.395Z,1006.88
2016-06-29T10:48:05.399Z,1006.85
2016-06-29T10:49:05.405Z,1006.98
2016-06-29T10:50:05.413Z,1006.95
2016-06-29T10:51:05.409Z,1006.94
2016-06-29T10:52:05.422Z,1006.94
2016-06-29T10:53:05.430Z,1006.91
2016-06-29T10:54:05.427Z,1006.94
2016-06-29T10:55:05.435Z,1006.9
2016-06-29T10:56:05.435Z,1006.92
2016-06-29T10:57:05.454Z,1006.95
2016-06-29T10:58:05.447Z,1006.9
2016-06-29T10:59:05.467Z,1006.87
2016-06-29T11:00:05.458Z,1006.84
2016-06-29T11:01:05.467Z,1006.81
2016-06-29T11:02:05.464Z,1006.86
2016-06-29T11:03:05.473Z,1006.93
2016-06-29T11:04:05.513Z,1006.85
2016-06-29T11:05:05.479Z,1006.91
2016-06-29T11:06:05.486Z,1006.9
2016-06-29T11:07:05.489Z,1006.98
2016-06-29T11:08:05.490Z,1006.9
2016-06-29T11:09:05.501Z,1006.85
2016-06-29T11:10:05.504Z,1006.82
2016-06-29T11:11:05.535Z,1006.79
2016-06-29T11:12:05.513Z,1006.78
2016-06-29T11:13:05.530Z,1006.77
2016-06-29T11:14:05.522Z,1006.79
2016-06-29T11:15:05.529Z,1006.83
2016-06-29T11:16:05.535Z,1006.83
2016-06-29T11:17:05.541Z,1006.77
2016-06-29T11:18:05.541Z,1006.82
2016-06-29T11:19:05.551Z,1006.79
2016-06-29T11:20:05.569Z,1006.83
2016-06-29T11:21:05.570Z,1006.79
2016-06-29T11:22:05.640Z,1006.82
2016-06-29T11:23:05.579Z,1006.82
2016-06-29T11:24:05.577Z,1006.74
2016-06-29T11:25:05.583Z,1006.76
2016-06-29T11:26:05.585Z,1006.74
2016-06-29T11:27:05.596Z,1006.8
2016-06-29T11:28:05.990Z,1006.71
2016-06-29T11:29:05.594Z,1006.76
2016-06-29T11:30:05.613Z,1006.75
2016-06-29T11:31:05.608Z,1006.74
2016-06-29T11:32:05.617Z,1006.73
2016-06-29T11:33:05.616Z,1006.77
2016-06-29T11:34:05.625Z,1006.73
2016-06-29T11:35:05.625Z,1006.8
2016-06-29T11:36:05.694Z,1006.8
2016-06-29T11:37:05.637Z,1006.8
2016-06-29T11:38:05.654Z,1006.81
2016-06-29T11:39:06.305Z,1006.78
2016-06-29T11:40:05.654Z,1006.75
2016-06-29T11:41:05.664Z,1006.82
2016-06-29T11:42:05.667Z,1006.73
2016-06-29T11:43:05.666Z,1006.77
2016-06-29T11:44:05.675Z,1006.74
2016-06-29T11:45:05.679Z,1006.81
2016-06-29T11:46:05.682Z,1006.83
2016-06-29T11:47:05.690Z,1006.82
2016-06-29T11:48:05.698Z,1006.81
2016-06-29T11:49:05.699Z,1006.83
2016-06-29T11:50:05.709Z,1006.86
2016-06-29T11:51:05.713Z,1006.86
2016-06-29T11:52:05.721Z,1006.86
2016-06-29T11:53:05.728Z,1006.83
2016-06-29T11:54:05.728Z,1006.77
2016-06-29T11:55:05.728Z,1006.75
2016-06-29T11:56:05.734Z,1006.73
2016-06-29T11:57:05.745Z,1006.91
2016-06-29T11:58:05.744Z,1006.78
2016-06-29T11:59:05.755Z,1006.81
2016-06-29T12:00:05.759Z,1006.91
2016-06-29T12:01:05.763Z,1006.81
2016-06-29T12:02:05.769Z,1006.9
2016-06-29T12:03:05.775Z,1006.87
2016-06-29T12:04:05.780Z,1006.86
2016-06-29T12:05:05.785Z,1006.9
2016-06-29T12:06:05.791Z,1006.88
2016-06-29T12:07:05.793Z,1006.91
2016-06-29T12:08:05.794Z,1006.91
2016-06-29T12:10:06.115Z,1006.78